createdAt,value
2023-04-18T00:00:30.854Z,23.55
2023-04-18T00:01:30.886Z,23.53
2023-04-18T00:02:31.011Z,23.53
2023-04-18T00:03:31.207Z,23.56
2023-04-18T00:04:31.053Z,23.53
2023-04-18T00:05:30.926Z,23.53
2023-04-18T00:06:30.893Z,23.55
2023-04-18T00:07:30.893Z,23.56
2023-04-18T00:08:30.872Z,23.53
2023-04-18T00:09:30.905Z,23.53
2023-04-18T00:10:30.845Z,23.52
2023-04-18T00:11:30.831Z,23.55
2023-04-18T00:12:30.863Z,23.55
2023-04-18T00:13:30.803Z,23.56
2023-04-18T00:14:30.786Z,23.56
2023-04-18T00:15:30.780Z,23.53
2023-04-18T00:16:30.781Z,23.53
2023-04-18T00:17:30.780Z,23.53
2023-04-18T00:18:30.786Z,23.55
2023-04-18T00:19:30.812Z,23.58
2023-04-18T00:20:30.858Z,23.56
2023-04-18T00:21:30.885Z,23.58
2023-04-18T00:22:30.916Z,23.56
2023-04-18T00:23:30.958Z,23.55
2023-04-18T00:24:30.988Z,23.59
2023-04-18T00:25:31.030Z,23.59
2023-04-18T00:26:31.039Z,23.58
2023-04-18T00:27:31.084Z,23.56
2023-04-18T00:28:31.142Z,23.58
2023-04-18T00:29:31.143Z,23.55
2023-04-18T00:30:31.181Z,23.53
2023-04-18T00:31:31.286Z,23.56
2023-04-18T00:32:31.239Z,23.55
2023-04-18T00:33:31.257Z,23.53
2023-04-18T00:34:31.288Z,23.56
2023-04-18T00:35:31.323Z,23.53
2023-04-18T00:36:31.384Z,23.53
2023-04-18T00:37:31.369Z,23.56
2023-04-18T00:38:31.417Z,23.58
2023-04-18T00:39:31.435Z,23.55
2023-04-18T00:40:31.474Z,23.55
2023-04-18T00:41:31.497Z,23.52
2023-04-18T00:42:31.524Z,23.55
2023-04-18T00:43:31.562Z,23.52
2023-04-18T00:44:31.578Z,23.55
2023-04-18T00:45:31.618Z,23.56
2023-04-18T00:46:31.694Z,23.52
2023-04-18T00:47:31.689Z,23.55
2023-04-18T00:48:31.718Z,23.58
2023-04-18T00:49:31.739Z,23.53
2023-04-18T00:50:31.790Z,23.55
2023-04-18T00:51:31.798Z,23.56
2023-04-18T00:52:31.837Z,23.53
2023-04-18T00:53:31.866Z,23.55
2023-04-18T00:54:31.895Z,23.55
2023-04-18T00:55:31.937Z,23.55
2023-04-18T00:56:31.959Z,23.53
2023-04-18T00:57:31.977Z,23.53
2023-04-18T00:58:32.011Z,23.55
2023-04-18T00:59:32.047Z,23.53
2023-04-18T01:00:32.088Z,23.53
2023-04-18T01:01:32.113Z,23.53
2023-04-18T01:02:32.220Z,23.53
2023-04-18T01:03:32.261Z,23.55
2023-04-18T01:04:32.298Z,23.52
2023-04-18T01:05:32.265Z,23.55
2023-04-18T01:06:32.267Z,23.53
2023-04-18T01:07:32.303Z,23.53
2023-04-18T01:08:32.341Z,23.52
2023-04-18T01:09:32.390Z,23.52
2023-04-18T01:10:32.420Z,23.52
2023-04-18T01:11:32.424Z,23.55
2023-04-18T01:12:32.458Z,23.52
2023-04-18T01:13:32.484Z,23.53
2023-04-18T01:14:32.526Z,23.55
2023-04-18T01:15:32.620Z,23.55
2023-04-18T01:16:32.598Z,23.55
2023-04-18T01:17:32.648Z,23.53
2023-04-18T01:18:32.656Z,23.53
2023-04-18T01:19:32.697Z,23.53
2023-04-18T01:20:32.727Z,23.52
2023-04-18T01:21:32.761Z,23.55
2023-04-18T01:22:32.795Z,23.55
2023-04-18T01:23:32.819Z,23.52
2023-04-18T01:24:32.855Z,23.55
2023-04-18T01:25:32.921Z,23.55
2023-04-18T01:26:32.925Z,23.53
2023-04-18T01:27:32.958Z,23.52
2023-04-18T01:28:32.986Z,23.53
2023-04-18T01:29:33.025Z,23.55
2023-04-18T01:30:33.070Z,23.56
2023-04-18T01:31:33.141Z,23.55
2023-04-18T01:32:33.192Z,23.53
2023-04-18T01:33:33.165Z,23.55
2023-04-18T01:34:33.210Z,23.56
2023-04-18T01:35:33.251Z,23.56
2023-04-18T01:36:33.279Z,23.55
2023-04-18T01:37:33.320Z,23.55
2023-04-18T01:38:33.341Z,23.55
2023-04-18T01:39:33.379Z,23.55
2023-04-18T01:40:33.418Z,23.55
2023-04-18T01:41:33.447Z,23.55
2023-04-18T01:42:33.480Z,23.55
2023-04-18T01:43:33.524Z,23.55
2023-04-18T01:44:33.554Z,23.56
2023-04-18T01:45:33.596Z,23.55
2023-04-18T01:46:33.638Z,23.55
2023-04-18T01:47:33.680Z,23.55
2023-04-18T01:48:34.066Z,23.55
2023-04-18T01:49:33.753Z,23.52
2023-04-18T01:50:33.785Z,23.56
2023-04-18T01:51:33.805Z,23.53
2023-04-18T01:52:33.842Z,23.56
2023-04-18T01:53:33.875Z,23.53
2023-04-18T01:54:33.907Z,23.56
2023-04-18T01:55:33.945Z,23.56
2023-04-18T01:56:33.994Z,23.55
2023-04-18T01:57:34.009Z,23.55
2023-04-18T01:58:34.075Z,23.56
2023-04-18T01:59:34.093Z,23.55
2023-04-18T02:00:34.136Z,23.55
2023-04-18T02:01:34.171Z,23.55
2023-04-18T02:02:34.319Z,23.53
2023-04-18T02:03:34.400Z,23.55
2023-04-18T02:04:34.266Z,23.53
2023-04-18T02:05:34.314Z,23.53
2023-04-18T02:06:34.343Z,23.55
2023-04-18T02:07:34.373Z,23.53
2023-04-18T02:08:34.419Z,23.52
2023-04-18T02:09:34.457Z,23.55
2023-04-18T02:10:34.515Z,23.52
2023-04-18T02:11:34.548Z,23.55
2023-04-18T02:12:34.568Z,23.53
2023-04-18T02:13:34.596Z,23.52
2023-04-18T02:14:34.642Z,23.53
2023-04-18T02:15:34.676Z,23.55
2023-04-18T02:16:34.745Z,23.53
2023-04-18T02:17:34.858Z,23.53
2023-04-18T02:18:34.812Z,23.55
2023-04-18T02:19:34.854Z,23.52
2023-04-18T02:20:34.903Z,23.55
2023-04-18T02:21:34.951Z,23.52
2023-04-18T02:22:35.014Z,23.50
2023-04-18T02:23:35.021Z,23.52
2023-04-18T02:24:35.083Z,23.49
2023-04-18T02:25:35.097Z,23.50
2023-04-18T02:26:35.161Z,23.53
2023-04-18T02:27:35.175Z,23.50
2023-04-18T02:28:35.226Z,23.52
2023-04-18T02:29:35.264Z,23.49
2023-04-18T02:30:35.316Z,23.52
2023-04-18T02:31:35.380Z,23.52
2023-04-18T02:32:35.439Z,23.52
2023-04-18T02:33:35.382Z,23.52
2023-04-18T02:34:35.359Z,23.53
2023-04-18T02:35:35.352Z,23.52
2023-04-18T02:36:35.333Z,23.53
2023-04-18T02:37:35.324Z,23.55
2023-04-18T02:38:35.316Z,23.53
2023-04-18T02:39:35.302Z,23.55
2023-04-18T02:40:35.326Z,23.50
2023-04-18T02:41:35.315Z,23.52
2023-04-18T02:42:35.279Z,23.53
2023-04-18T02:43:35.283Z,23.55
2023-04-18T02:44:35.277Z,23.52
2023-04-18T02:45:35.323Z,23.50
2023-04-18T02:46:35.289Z,23.55
2023-04-18T02:47:47.005Z,23.53
2023-04-18T02:48:36.418Z,23.52
2023-04-18T02:49:35.256Z,23.52
2023-04-18T02:50:35.269Z,23.52
2023-04-18T02:51:35.256Z,23.50
2023-04-18T02:52:35.307Z,23.52
2023-04-18T02:53:35.240Z,23.52
2023-04-18T02:54:35.233Z,23.52
2023-04-18T02:55:35.239Z,23.52
2023-04-18T02:56:35.249Z,23.49
2023-04-18T02:57:35.223Z,23.52
2023-04-18T02:58:35.215Z,23.50
2023-04-18T02:59:35.189Z,23.50
2023-04-18T03:00:35.186Z,23.49
2023-04-18T03:01:35.268Z,23.50
2023-04-18T03:02:35.330Z,23.50
2023-04-18T03:03:35.298Z,23.49
2023-04-18T03:04:35.147Z,23.49
2023-04-18T03:05:35.136Z,23.50
2023-04-18T03:06:35.136Z,23.49
2023-04-18T03:07:35.107Z,23.52
2023-04-18T03:08:35.092Z,23.50
2023-04-18T03:09:35.113Z,23.50
2023-04-18T03:10:35.087Z,23.52
2023-04-18T03:11:35.083Z,23.52
2023-04-18T03:12:35.122Z,23.53
2023-04-18T03:13:35.167Z,23.55
2023-04-18T03:14:35.213Z,23.52
2023-04-18T03:15:35.298Z,23.50
2023-04-18T03:16:35.330Z,23.50
2023-04-18T03:17:35.390Z,23.50
2023-04-18T03:18:35.405Z,23.50
2023-04-18T03:19:35.472Z,23.50
2023-04-18T03:20:35.499Z,23.50
2023-04-18T03:21:35.569Z,23.48
2023-04-18T03:22:35.603Z,23.50
2023-04-18T03:23:35.650Z,23.52
2023-04-18T03:24:35.706Z,23.50
2023-04-18T03:25:35.744Z,23.49
2023-04-18T03:26:35.800Z,23.50
2023-04-18T03:27:35.842Z,23.49
2023-04-18T03:28:35.901Z,23.50
2023-04-18T03:29:35.934Z,23.50
2023-04-18T03:30:35.992Z,23.50
2023-04-18T03:31:36.064Z,23.50
2023-04-18T03:32:36.075Z,23.52
2023-04-18T03:33:36.121Z,23.52
2023-04-18T03:34:36.175Z,23.50
2023-04-18T03:35:36.203Z,23.50
2023-04-18T03:36:36.232Z,23.49
2023-04-18T03:37:36.265Z,23.49
2023-04-18T03:38:36.301Z,23.52
2023-04-18T03:39:36.340Z,23.49
2023-04-18T03:40:36.487Z,23.50
2023-04-18T03:41:36.422Z,23.49
2023-04-18T03:42:36.459Z,23.53
2023-04-18T03:43:36.539Z,23.52
2023-04-18T03:44:36.549Z,23.52
2023-04-18T03:45:36.574Z,23.55
2023-04-18T03:46:36.683Z,23.52
2023-04-18T03:47:36.732Z,23.53
2023-04-18T03:48:36.837Z,23.50
2023-04-18T03:49:36.841Z,23.52
2023-04-18T03:50:36.829Z,23.52
2023-04-18T03:51:36.897Z,23.53
2023-04-18T03:52:36.922Z,23.50
2023-04-18T03:53:36.920Z,23.50
2023-04-18T03:54:36.962Z,23.52
2023-04-18T03:55:37.012Z,23.50
2023-04-18T03:56:37.056Z,23.52
2023-04-18T03:57:37.099Z,23.48
2023-04-18T03:58:37.152Z,23.52
2023-04-18T03:59:37.183Z,23.50
2023-04-18T04:00:37.252Z,23.52
2023-04-18T04:01:37.262Z,23.49
2023-04-18T04:02:37.368Z,23.48
2023-04-18T04:03:37.393Z,23.50
2023-04-18T04:04:37.214Z,23.50
2023-04-18T04:05:37.179Z,23.49
2023-04-18T04:06:37.155Z,23.49
2023-04-18T04:07:37.131Z,23.49
2023-04-18T04:08:37.135Z,23.49
2023-04-18T04:09:37.116Z,23.50
2023-04-18T04:10:37.104Z,23.49
2023-04-18T04:11:37.143Z,23.52
2023-04-18T04:12:37.213Z,23.52
2023-04-18T04:13:37.236Z,23.50
2023-04-18T04:14:37.293Z,23.52
2023-04-18T04:15:37.325Z,23.49
2023-04-18T04:16:37.400Z,23.49
2023-04-18T04:17:37.447Z,23.50
2023-04-18T04:18:37.462Z,23.50
2023-04-18T04:19:37.500Z,23.48
2023-04-18T04:20:37.536Z,23.52
2023-04-18T04:21:37.577Z,23.50
2023-04-18T04:22:37.638Z,23.48
2023-04-18T04:23:37.660Z,23.48
2023-04-18T04:24:37.709Z,23.49
2023-04-18T04:25:37.763Z,23.49
2023-04-18T04:26:37.791Z,23.49
2023-04-18T04:27:37.840Z,23.49
2023-04-18T04:28:37.880Z,23.46
2023-04-18T04:29:37.873Z,23.48
2023-04-18T04:30:37.893Z,23.49
2023-04-18T04:31:37.887Z,23.48
2023-04-18T04:32:37.863Z,23.49
2023-04-18T04:33:37.821Z,23.49
2023-04-18T04:34:37.810Z,23.49
2023-04-18T04:35:37.890Z,23.49
2023-04-18T04:36:37.779Z,23.50
2023-04-18T04:37:37.758Z,23.48
2023-04-18T04:38:37.749Z,23.48
2023-04-18T04:39:37.737Z,23.49
2023-04-18T04:40:37.766Z,23.50
2023-04-18T04:41:37.805Z,23.49
2023-04-18T04:42:37.867Z,23.50
2023-04-18T04:43:37.908Z,23.50
2023-04-18T04:44:37.973Z,23.49
2023-04-18T04:45:38.044Z,23.49
2023-04-18T04:46:38.037Z,23.48
2023-04-18T04:47:38.119Z,23.49
2023-04-18T04:48:38.123Z,23.46
2023-04-18T04:49:38.157Z,23.46
2023-04-18T04:50:38.230Z,23.49
2023-04-18T04:51:38.257Z,23.48
2023-04-18T04:52:38.316Z,23.50
2023-04-18T04:53:38.360Z,23.50
2023-04-18T04:54:38.403Z,23.49
2023-04-18T04:55:38.474Z,23.48
2023-04-18T04:56:38.561Z,23.50
2023-04-18T04:57:38.593Z,23.50
2023-04-18T04:58:38.640Z,23.49
2023-04-18T04:59:38.682Z,23.49
2023-04-18T05:00:38.746Z,23.49
2023-04-18T05:01:38.919Z,23.50
2023-04-18T05:02:38.929Z,23.49
2023-04-18T05:03:38.963Z,23.49
2023-04-18T05:04:39.019Z,23.50
2023-04-18T05:05:38.817Z,23.49
2023-04-18T05:06:40.233Z,23.49
2023-04-18T05:07:38.786Z,23.50
2023-04-18T05:08:38.773Z,23.50
2023-04-18T05:09:38.762Z,23.50
2023-04-18T05:10:38.749Z,23.49
2023-04-18T05:11:38.747Z,23.49
2023-04-18T05:12:38.734Z,23.50
2023-04-18T05:13:38.808Z,23.52
2023-04-18T05:14:38.840Z,23.50
2023-04-18T05:15:38.878Z,23.50
2023-04-18T05:16:38.941Z,23.50
2023-04-18T05:17:39.007Z,23.52
2023-04-18T05:18:39.067Z,23.50
2023-04-18T05:19:39.094Z,23.48
2023-04-18T05:20:39.111Z,23.50
2023-04-18T05:21:39.237Z,23.49
2023-04-18T05:22:39.208Z,23.49
2023-04-18T05:23:39.261Z,23.52
2023-04-18T05:24:39.305Z,23.48
2023-04-18T05:25:39.337Z,23.48
2023-04-18T05:26:39.368Z,23.49
2023-04-18T05:27:39.410Z,23.48
2023-04-18T05:28:39.474Z,23.49
2023-04-18T05:29:39.498Z,23.46
2023-04-18T05:30:39.650Z,23.48
2023-04-18T05:31:39.591Z,23.48
2023-04-18T05:32:39.748Z,23.49
2023-04-18T05:33:39.654Z,23.48
2023-04-18T05:34:39.691Z,23.48
2023-04-18T05:35:39.737Z,23.49
2023-04-18T05:36:39.724Z,23.49
2023-04-18T05:37:39.709Z,23.50
2023-04-18T05:38:39.671Z,23.49
2023-04-18T05:39:39.664Z,23.52
2023-04-18T05:40:39.679Z,23.50
2023-04-18T05:41:39.635Z,23.50
2023-04-18T05:42:39.646Z,23.53
2023-04-18T05:43:39.620Z,23.53
2023-04-18T05:44:39.631Z,23.53
2023-04-18T05:45:39.596Z,23.50
2023-04-18T05:46:39.653Z,23.52
2023-04-18T05:47:39.630Z,23.50
2023-04-18T05:48:39.602Z,23.52
2023-04-18T05:49:39.587Z,23.52
2023-04-18T05:50:39.589Z,23.49
2023-04-18T05:51:39.580Z,23.50
2023-04-18T05:52:39.553Z,23.56
2023-04-18T05:53:39.628Z,23.53
2023-04-18T05:54:39.564Z,23.52
2023-04-18T05:55:39.687Z,23.55
2023-04-18T05:56:39.661Z,23.55
2023-04-18T05:57:39.701Z,23.55
2023-04-18T05:58:39.768Z,23.55
2023-04-18T05:59:39.772Z,23.56
2023-04-18T06:00:39.868Z,23.56
2023-04-18T06:01:39.847Z,23.55
2023-04-18T06:02:39.986Z,23.55
2023-04-18T06:03:40.158Z,23.56
2023-04-18T06:04:40.196Z,23.59
2023-04-18T06:05:40.093Z,23.55
2023-04-18T06:06:40.030Z,23.58
2023-04-18T06:07:40.084Z,23.58
2023-04-18T06:08:40.135Z,23.59
2023-04-18T06:09:41.171Z,23.59
2023-04-18T06:10:40.197Z,23.58
2023-04-18T06:11:40.260Z,23.59
2023-04-18T06:12:40.282Z,23.59
2023-04-18T06:13:40.334Z,23.58
2023-04-18T06:14:40.320Z,23.58
2023-04-18T06:15:41.144Z,23.59
2023-04-18T06:16:40.314Z,23.62
2023-04-18T06:17:40.304Z,23.62
2023-04-18T06:18:40.635Z,23.59
2023-04-18T06:19:40.302Z,23.60
2023-04-18T06:20:40.295Z,23.63
2023-04-18T06:21:40.257Z,23.65
2023-04-18T06:22:40.205Z,23.65
2023-04-18T06:23:40.183Z,23.65
2023-04-18T06:24:40.166Z,23.63
2023-04-18T06:25:40.168Z,23.65
2023-04-18T06:26:40.187Z,23.63
2023-04-18T06:27:40.160Z,23.66
2023-04-18T06:28:40.161Z,23.68
2023-04-18T06:29:40.139Z,23.66
2023-04-18T06:30:40.162Z,23.68
2023-04-18T06:31:40.185Z,23.69
2023-04-18T06:32:40.127Z,23.70
2023-04-18T06:33:40.112Z,23.72
2023-04-18T06:34:40.105Z,23.70
2023-04-18T06:35:40.073Z,23.70
2023-04-18T06:36:40.171Z,23.70
2023-04-18T06:37:40.051Z,23.69
2023-04-18T06:38:40.045Z,23.72
2023-04-18T06:39:40.011Z,23.73
2023-04-18T06:40:40.006Z,23.73
2023-04-18T06:41:39.984Z,23.74
2023-04-18T06:42:39.988Z,23.77
2023-04-18T06:43:49.172Z,23.80
2023-04-18T06:44:41.047Z,23.81
2023-04-18T06:45:40.005Z,23.86
2023-04-18T06:46:39.981Z,23.87
2023-04-18T06:47:39.993Z,23.90
2023-04-18T06:48:39.970Z,23.90
2023-04-18T06:49:39.940Z,23.90
2023-04-18T06:50:39.970Z,23.89
2023-04-18T06:51:39.959Z,23.89
2023-04-18T06:52:40.077Z,23.91
2023-04-18T06:53:39.912Z,23.95
2023-04-18T06:54:39.876Z,23.96
2023-04-18T06:55:39.874Z,23.96
2023-04-18T06:56:39.855Z,24.00
2023-04-18T06:57:39.886Z,23.99
2023-04-18T06:58:39.867Z,24.01
2023-04-18T06:59:39.841Z,23.99
2023-04-18T07:00:39.826Z,23.99
2023-04-18T07:01:39.838Z,23.99
2023-04-18T07:02:39.938Z,23.97
2023-04-18T07:03:39.843Z,23.96
2023-04-18T07:04:39.952Z,23.95
2023-04-18T07:05:39.754Z,23.96
2023-04-18T07:06:39.749Z,23.97
2023-04-18T07:07:39.765Z,23.96
2023-04-18T07:08:39.736Z,23.95
2023-04-18T07:09:39.718Z,23.91
2023-04-18T07:10:39.697Z,23.90
2023-04-18T07:11:39.681Z,23.95
2023-04-18T07:12:39.661Z,24.00
2023-04-18T07:13:39.663Z,24.03
2023-04-18T07:14:39.662Z,24.01
2023-04-18T07:15:39.636Z,24.07
2023-04-18T07:16:39.659Z,24.11
2023-04-18T07:17:39.606Z,24.18
2023-04-18T07:18:39.599Z,24.23
2023-04-18T07:19:39.574Z,24.21
2023-04-18T07:20:39.642Z,24.27
2023-04-18T07:21:39.540Z,24.31
2023-04-18T07:22:39.500Z,24.38
2023-04-18T07:23:39.541Z,24.40
2023-04-18T07:24:39.569Z,24.38
2023-04-18T07:25:39.579Z,24.42
2023-04-18T07:26:39.629Z,24.38
2023-04-18T07:27:39.670Z,24.41
2023-04-18T07:28:39.717Z,24.37
2023-04-18T07:29:39.768Z,24.32
2023-04-18T07:30:39.817Z,24.30
2023-04-18T07:31:39.788Z,24.30
2023-04-18T07:32:39.776Z,24.32
2023-04-18T07:33:39.754Z,24.37
2023-04-18T07:34:39.801Z,24.34
2023-04-18T07:35:39.779Z,24.32
2023-04-18T07:36:40.685Z,24.32
2023-04-18T07:37:39.768Z,24.31
2023-04-18T07:38:39.715Z,24.28
2023-04-18T07:39:39.716Z,24.30
2023-04-18T07:40:39.808Z,24.30
2023-04-18T07:41:39.729Z,24.35
2023-04-18T07:42:39.679Z,24.32
2023-04-18T07:43:39.674Z,24.32
2023-04-18T07:44:39.680Z,24.34
2023-04-18T07:45:39.654Z,24.40
2023-04-18T07:46:39.693Z,24.40
2023-04-18T07:47:39.957Z,24.44
2023-04-18T07:48:39.605Z,24.50
2023-04-18T07:49:39.569Z,24.55
2023-04-18T07:50:39.603Z,24.52
2023-04-18T07:51:39.502Z,24.55
2023-04-18T07:52:39.663Z,24.57
2023-04-18T07:53:39.469Z,24.54
2023-04-18T07:54:39.581Z,24.52
2023-04-18T07:55:39.484Z,24.58
2023-04-18T07:56:39.502Z,24.61
2023-04-18T07:57:39.514Z,24.58
2023-04-18T07:58:39.565Z,24.59
2023-04-18T07:59:39.579Z,24.58
2023-04-18T08:00:39.623Z,24.64
2023-04-18T08:01:39.738Z,24.68
2023-04-18T08:02:39.926Z,24.67
2023-04-18T08:03:39.860Z,24.67
2023-04-18T08:04:39.915Z,24.61
2023-04-18T08:05:39.988Z,24.59
2023-04-18T08:06:39.884Z,24.58
2023-04-18T08:07:39.910Z,24.62
2023-04-18T08:08:39.950Z,24.59
2023-04-18T08:09:40.023Z,24.62
2023-04-18T08:10:40.130Z,24.59
2023-04-18T08:11:40.075Z,24.61
2023-04-18T08:12:40.209Z,24.61
2023-04-18T08:13:40.178Z,24.61
2023-04-18T08:14:40.241Z,24.62
2023-04-18T08:15:40.284Z,24.59
2023-04-18T08:16:40.353Z,24.59
2023-04-18T08:17:40.439Z,24.58
2023-04-18T08:18:40.440Z,24.57
2023-04-18T08:19:40.409Z,24.55
2023-04-18T08:20:40.382Z,24.57
2023-04-18T08:21:40.359Z,24.55
2023-04-18T08:22:53.772Z,24.52
2023-04-18T08:23:41.335Z,24.54
2023-04-18T08:24:41.685Z,24.55
2023-04-18T08:25:41.268Z,24.55
2023-04-18T08:26:40.230Z,24.51
2023-04-18T08:27:40.235Z,24.54
2023-04-18T08:28:40.205Z,24.52
2023-04-18T08:29:40.275Z,24.52
2023-04-18T08:30:40.159Z,24.57
2023-04-18T08:31:40.207Z,24.58
2023-04-18T08:32:40.194Z,24.55
2023-04-18T08:33:40.108Z,24.57
2023-04-18T08:34:40.090Z,24.54
2023-04-18T08:35:40.086Z,24.57
2023-04-18T08:36:40.096Z,24.58
2023-04-18T08:37:40.115Z,24.58
2023-04-18T08:38:40.115Z,24.58
2023-04-18T08:39:40.155Z,24.64
2023-04-18T08:40:40.207Z,24.68
2023-04-18T08:41:41.203Z,24.69
2023-04-18T08:42:40.311Z,24.72
2023-04-18T08:43:40.372Z,24.77
2023-04-18T08:44:40.476Z,24.75
2023-04-18T08:45:40.581Z,24.74
2023-04-18T08:46:40.521Z,24.71
2023-04-18T08:47:40.602Z,24.75
2023-04-18T08:48:40.612Z,24.77
2023-04-18T08:49:40.686Z,24.72
2023-04-18T08:50:40.734Z,24.72
2023-04-18T08:51:40.786Z,24.71
2023-04-18T08:52:40.657Z,24.71
2023-04-18T08:53:40.668Z,24.71
2023-04-18T08:54:40.627Z,24.71
2023-04-18T08:55:40.671Z,24.69
2023-04-18T08:56:40.569Z,24.67
2023-04-18T08:57:40.541Z,24.65
2023-04-18T08:58:40.540Z,24.65
2023-04-18T08:59:40.537Z,24.65
2023-04-18T09:00:40.629Z,24.64
2023-04-18T09:01:40.611Z,24.65
2023-04-18T09:02:40.712Z,24.64
2023-04-18T09:03:40.769Z,24.62
2023-04-18T09:04:40.718Z,24.62
2023-04-18T09:05:40.680Z,24.64
2023-04-18T09:06:40.651Z,24.62
2023-04-18T09:07:40.629Z,24.62
2023-04-18T09:08:40.622Z,24.62
2023-04-18T09:09:40.588Z,24.62
2023-04-18T09:10:40.576Z,24.61
2023-04-18T09:11:40.546Z,24.64
2023-04-18T09:12:40.526Z,24.64
2023-04-18T09:13:40.525Z,24.62
2023-04-18T09:14:40.479Z,24.61
2023-04-18T09:15:40.485Z,24.61
2023-04-18T09:16:40.541Z,24.59
2023-04-18T09:17:40.443Z,24.61
2023-04-18T09:18:40.432Z,24.62
2023-04-18T09:19:40.432Z,24.61
2023-04-18T09:20:40.465Z,24.59
2023-04-18T09:21:40.528Z,24.61
2023-04-18T09:22:40.545Z,24.61
2023-04-18T09:23:40.613Z,24.61
2023-04-18T09:24:40.640Z,24.61
2023-04-18T09:25:42.148Z,24.61
2023-04-18T09:26:40.658Z,24.61
2023-04-18T09:27:40.671Z,24.62
2023-04-18T09:28:40.623Z,24.62
2023-04-18T09:29:40.601Z,24.62
2023-04-18T09:30:40.683Z,24.62
2023-04-18T09:31:40.561Z,24.62
2023-04-18T09:32:40.571Z,24.59
2023-04-18T09:33:40.529Z,24.58
2023-04-18T09:34:40.496Z,24.59
2023-04-18T09:35:40.487Z,24.61
2023-04-18T09:36:40.473Z,24.61
2023-04-18T09:37:40.571Z,24.58
2023-04-18T09:38:40.394Z,24.61
2023-04-18T09:39:40.370Z,24.61
2023-04-18T09:40:40.358Z,24.59
2023-04-18T09:41:40.348Z,24.62
2023-04-18T09:42:40.300Z,24.59
2023-04-18T09:43:40.269Z,24.61
2023-04-18T09:44:40.242Z,24.58
2023-04-18T09:45:40.716Z,24.59
2023-04-18T09:46:40.375Z,24.59
2023-04-18T09:47:40.209Z,24.58
2023-04-18T09:48:40.252Z,24.55
2023-04-18T09:49:40.127Z,24.59
2023-04-18T09:50:40.168Z,24.58
2023-04-18T09:51:40.110Z,24.55
2023-04-18T09:52:40.110Z,24.57
2023-04-18T09:53:40.041Z,24.58
2023-04-18T09:54:40.024Z,24.57
2023-04-18T09:55:40.039Z,24.58
2023-04-18T09:56:40.013Z,24.58
2023-04-18T09:57:40.002Z,24.55
2023-04-18T09:58:40.060Z,24.57
2023-04-18T09:59:40.068Z,24.54
2023-04-18T10:00:40.261Z,24.55
2023-04-18T10:01:40.181Z,24.54
2023-04-18T10:02:40.256Z,24.55
2023-04-18T10:03:40.266Z,24.55
2023-04-18T10:04:40.379Z,24.57
2023-04-18T10:05:40.338Z,24.57
2023-04-18T10:06:40.357Z,24.55
2023-04-18T10:07:41.210Z,24.54
2023-04-18T10:08:40.287Z,24.57
2023-04-18T10:09:40.289Z,24.55
2023-04-18T10:10:40.280Z,24.55
2023-04-18T10:11:40.236Z,24.54
2023-04-18T10:12:40.192Z,24.54
2023-04-18T10:13:40.164Z,24.57
2023-04-18T10:14:40.130Z,24.57
2023-04-18T10:15:41.715Z,24.55
2023-04-18T10:16:40.206Z,24.57
2023-04-18T10:17:44.598Z,24.59
2023-04-18T10:18:41.060Z,24.57
2023-04-18T10:19:40.028Z,24.57
2023-04-18T10:20:40.052Z,24.58
2023-04-18T10:21:40.006Z,24.58
2023-04-18T10:22:39.968Z,24.58
2023-04-18T10:23:39.975Z,24.57
2023-04-18T10:24:39.906Z,24.54
2023-04-18T10:25:39.882Z,24.58
2023-04-18T10:26:40.019Z,24.58
2023-04-18T10:27:39.842Z,24.57
2023-04-18T10:28:39.847Z,24.57
2023-04-18T10:29:39.897Z,24.57
2023-04-18T10:30:40.013Z,24.55
2023-04-18T10:31:40.008Z,24.57
2023-04-18T10:32:40.089Z,24.55
2023-04-18T10:33:42.510Z,24.52
2023-04-18T10:34:40.101Z,24.55
2023-04-18T10:35:41.332Z,24.52
2023-04-18T10:36:40.088Z,24.57
2023-04-18T10:37:40.021Z,24.54
2023-04-18T10:38:40.028Z,24.57
2023-04-18T10:39:39.968Z,24.55
2023-04-18T10:40:39.957Z,24.57
2023-04-18T10:41:40.224Z,24.58
2023-04-18T10:42:39.907Z,24.58
2023-04-18T10:43:39.891Z,24.59
2023-04-18T10:44:40.740Z,24.59
2023-04-18T10:45:39.859Z,24.59
2023-04-18T10:46:39.984Z,24.59
2023-04-18T10:47:39.997Z,24.61
2023-04-18T10:48:39.811Z,24.62
2023-04-18T10:49:39.782Z,24.64
2023-04-18T10:50:39.853Z,24.65
2023-04-18T10:51:39.760Z,24.64
2023-04-18T10:52:39.896Z,24.67
2023-04-18T10:53:39.717Z,24.65
2023-04-18T10:54:39.712Z,24.68
2023-04-18T10:55:39.695Z,24.65
2023-04-18T10:56:39.667Z,24.65
2023-04-18T10:57:39.664Z,24.67
2023-04-18T10:58:39.624Z,24.68
2023-04-18T10:59:39.668Z,24.69
2023-04-18T11:00:39.683Z,24.71
2023-04-18T11:01:39.879Z,24.72
2023-04-18T11:02:39.874Z,24.72
2023-04-18T11:03:39.779Z,24.72
2023-04-18T11:04:39.733Z,24.74
2023-04-18T11:05:39.744Z,24.78
2023-04-18T11:06:39.772Z,24.75
2023-04-18T11:07:39.778Z,24.78
2023-04-18T11:08:39.989Z,24.78
2023-04-18T11:09:39.810Z,24.79
2023-04-18T11:10:39.825Z,24.81
2023-04-18T11:11:39.839Z,24.82
2023-04-18T11:12:39.786Z,24.81
2023-04-18T11:13:39.748Z,24.82
2023-04-18T11:14:39.751Z,24.85
2023-04-18T11:15:39.724Z,24.81
2023-04-18T11:16:39.934Z,24.82
2023-04-18T11:17:39.674Z,24.83
2023-04-18T11:18:39.625Z,24.85
2023-04-18T11:19:39.594Z,24.86
2023-04-18T11:20:39.766Z,24.86
2023-04-18T11:21:39.560Z,24.88
2023-04-18T11:22:39.525Z,24.88
2023-04-18T11:23:39.498Z,24.89
2023-04-18T11:24:39.509Z,24.89
2023-04-18T11:25:39.489Z,24.92
2023-04-18T11:26:39.428Z,24.90
2023-04-18T11:27:39.403Z,24.90
2023-04-18T11:28:39.437Z,24.92
2023-04-18T11:29:39.506Z,24.90
2023-04-18T11:30:39.345Z,24.93
2023-04-18T11:31:39.388Z,24.93
2023-04-18T11:32:39.310Z,24.93
2023-04-18T11:33:39.274Z,24.93
2023-04-18T11:34:39.247Z,24.90
2023-04-18T11:35:39.212Z,24.92
2023-04-18T11:36:39.215Z,24.93
2023-04-18T11:37:39.288Z,24.89
2023-04-18T11:38:39.215Z,24.89
2023-04-18T11:39:39.219Z,24.89
2023-04-18T11:40:39.228Z,24.89
2023-04-18T11:41:39.253Z,24.89
2023-04-18T11:42:39.263Z,24.89
2023-04-18T11:43:39.273Z,24.88
2023-04-18T11:44:39.341Z,24.89
2023-04-18T11:45:39.330Z,24.89
2023-04-18T11:46:39.342Z,24.90
2023-04-18T11:47:39.332Z,24.90
2023-04-18T11:48:39.292Z,24.89
2023-04-18T11:49:39.300Z,24.92
2023-04-18T11:50:39.300Z,24.92
2023-04-18T11:51:39.338Z,24.92
2023-04-18T11:52:39.310Z,24.93
2023-04-18T11:53:39.267Z,24.95
2023-04-18T11:54:39.269Z,24.96
2023-04-18T11:55:39.237Z,24.95
2023-04-18T11:56:39.218Z,24.93
2023-04-18T11:57:39.201Z,24.95
2023-04-18T11:58:39.194Z,24.93
2023-04-18T11:59:39.185Z,24.95
2023-04-18T12:00:39.129Z,24.95
2023-04-18T12:01:39.120Z,24.96
2023-04-18T12:02:39.254Z,24.96
2023-04-18T12:03:39.206Z,24.96
2023-04-18T12:04:39.276Z,24.96
2023-04-18T12:05:39.209Z,24.96
2023-04-18T12:06:39.011Z,24.96
2023-04-18T12:07:38.976Z,24.98
2023-04-18T12:08:38.948Z,24.99
2023-04-18T12:09:38.925Z,24.99
2023-04-18T12:10:38.899Z,24.99
2023-04-18T12:11:38.887Z,25.00
2023-04-18T12:12:38.873Z,24.99
2023-04-18T12:13:38.834Z,25.02
2023-04-18T12:14:38.785Z,25.05
2023-04-18T12:15:38.907Z,25.05
2023-04-18T12:16:38.755Z,25.06
2023-04-18T12:17:38.751Z,25.05
2023-04-18T12:18:38.698Z,25.05
2023-04-18T12:19:38.663Z,25.06
2023-04-18T12:20:38.635Z,25.08
2023-04-18T12:21:38.601Z,25.08
2023-04-18T12:22:38.586Z,25.08
2023-04-18T12:23:38.563Z,25.06
2023-04-18T12:24:38.534Z,25.09
2023-04-18T12:25:38.523Z,25.08
2023-04-18T12:26:38.473Z,25.06
2023-04-18T12:27:38.473Z,25.05
2023-04-18T12:28:38.460Z,25.03
2023-04-18T12:29:39.261Z,25.00
2023-04-18T12:30:38.376Z,25.03
2023-04-18T12:31:38.366Z,25.00
2023-04-18T12:32:38.381Z,25.03
2023-04-18T12:33:38.313Z,25.00
2023-04-18T12:34:38.318Z,25.00
2023-04-18T12:35:38.250Z,25.00
2023-04-18T12:36:38.211Z,25.02
2023-04-18T12:37:38.284Z,25.05
2023-04-18T12:38:38.155Z,25.03
2023-04-18T12:39:38.129Z,25.05
2023-04-18T12:40:38.118Z,25.06
2023-04-18T12:41:38.077Z,25.08
2023-04-18T12:42:38.049Z,25.06
2023-04-18T12:43:38.048Z,25.08
2023-04-18T12:44:38.008Z,25.10
2023-04-18T12:45:37.969Z,25.08
2023-04-18T12:46:37.984Z,25.08
2023-04-18T12:47:37.968Z,25.09
2023-04-18T12:48:37.887Z,25.13
2023-04-18T12:49:37.894Z,25.12
2023-04-18T12:50:37.863Z,25.13
2023-04-18T12:51:37.940Z,25.12
2023-04-18T12:52:37.809Z,25.12